CheckWX is a tool to help pilots better visualize weather data.  It is not intended as a substitute for an official pre-flight weather briefing.

13:41:18 UTC

ETSL METAR
Lechfeld Airport
Germany
Current

21 mins ago

ETSL 201320Z AUTO 25008KT 9999 // ////// 29/11 Q1016 ///
Observed
Jul-20 @ 13:20 UTC
Wind
  • 250° at 8 KTS
Visibility
10,000+ meters
Temperature
29°C / 84°F
Dewpoint
11°C / 52°F
Humidity
33%
Altimeter
30" Hg
Pressure
1015.92 hPa
Previous

1 hour ago

ETSL 201220Z AUTO 26008KT 9999 // ////// 29/12 Q1017 ///
Observed
Jul-20 @ 12:20 UTC
Wind
  • 260° at 8 KTS
Visibility
10,000+ meters
Temperature
29°C / 84°F
Dewpoint
12°C / 54°F
Humidity
35%
Altimeter
30.03" Hg
Pressure
1016.92 hPa
Previous

2 hours ago

ETSL 201120Z AUTO 25009KT 9999 // ////// 28/13 Q1017 ///
Observed
Jul-20 @ 11:20 UTC
Wind
  • 250° at 9 KTS
Visibility
10,000+ meters
Temperature
28°C / 82°F
Dewpoint
13°C / 55°F
Heat Index
27°C / 81°F
Humidity
40%
Altimeter
30.03" Hg
Pressure
1016.92 hPa